Pagrindinis puslapis
METAR-TAF:

METAR-TAF

Oro uostai :

Čita, Rusija

platuma: 52-05N, ilguma: 113-29E, Aukštis: 685 m

Dabartinis oras

Ataskaita buvo paskelbta 17 minutes, ne 18:00 UTC
Ramus vėjas
Temperatūra -8°C
Drėgmė 92%
Slėgis 1026 hPa
Matomumas 10 km arba daugiau

METAR: UIAA 271800Z AUTO 00000MPS 9999 ///043/// M08/M09 Q1026 RMK QFE710/0947

Laikas: 03:17 (18:17 UTC)

Prognozė

Ataskaita buvo paskelbta 1 valandą ir 17 minutes, ne 17:00 UTC
Prognozė galioja nuo 27 metu 18 UTC su 28 metu 18 UTC
Vėjas 6 kt iš Vakarų su gūsio iki 16 kt
Matomumas: 1200 m
Su prošvaistėmis ne aukštis 2000 ft, Liūtiniai kamuoliniai debesys.
sniegas
Laikinai
nuo 27 metu 18 UTC su 27 metu 24 UTC
Matomumas: 3100 m
sniegas
Tapsmas
nuo 28 metu 00 UTC su 28 metu 02 UTC
Vėjas 10 kt iš Šiaurės/Šiaurės Vakarų su gūsio iki 19 kt
Matomumas 10 km arba daugiau
Laikinai
nuo 28 metu 02 UTC su 28 metu 12 UTC
Vėjas 6 kt iš Vakarų su gūsio iki 16 kt

TAF: UIAA 271700Z 2718/2818 28003G08MPS 1200 SHSN BKN020CB TEMPO 2718/2724 3100 -SHSN BECMG 2800/2802 34005G10MPS 9999 NSW TEMPO 2802/2812 28003G08MPS

Orai ataskaitas ir orų prognozės (METAR, TAF).

turimą stotys yra geltonos ir raudonos taškus žemėlapyje.

Perkelti pele per norėdami pamatyti stoties vardą.

Tada spustelėkite, norėdami matyti oro stebėjimo ir prognozės.

Norėdami pakeisti žemėlapį: spustelėkite ant žalios mygtukų su juodo kryžiaus žemyn,; žalią mygtuką su brūkšneliu, jei norite nutolinti; arba žalių rodyklių gretimoms žemėlapius.


METAR-TAF: